Terminal Aerodrome Forecast
Issued by NWS Twin Cities, MN

Home | Current Version | Previous Version | Text Only | Print | Product List | Glossary Off
Versions: 1 2 3 4 5 6 7 8 9 10 11 12 13 14 15 16 17 18 19

000
FTUS43 KMPX 132320
TAFEAU
TAF
KEAU 132320Z 1400/1424 36005KT P6SM SCT200
     FM140700 04003KT P6SM FEW250
     FM141500 08008KT P6SM BKN120 OVC250
     FM142100 05007KT 6SM -SHRA OVC015=

USA.gov is the U.S. government's official web portal to all federal, state and local government web resources and services.